33分钟前
罗盘
风向 的 风向 270° Babice Airport 10R/28L
风: 14 千吨, 4 beaufort
0 500 1.500 3.000 5.000 8.000 10.000
BKN 900 ft
METAR EPWA 261700Z 27014KT 9999 BKN009 03/03 Q1019 NOSIG

METAR定义 | 嵌入

24小时趋势

航班类别VFRLIFR
温度3 °C1 °C
风速14 千吨0 千吨
能见度10 公里+0 米

更多历史数据

下载我们的安卓应用程序

从你的主屏幕上轻松地访问你的航空天气。
只需一次付费,您就可以获得无广告的体验。

您会帮助我们保持Metar-Taf.com正常运行吗?
您的贡献有助于网站的进一步开发并支付费用。

没有更多广告

您是捐款5美元还是更多?然后,我们将永远不会再向您展示广告,这是我们永恒的感谢!
捐赠前先登录

METAR Babice Airport

该字段位于波兰中。 机场有{a,plural,=1{一条跑道} other{#跑道}}: 10L/28R 和 10R/28L

Babice Airport最近未发布观察结果。相反,我们向您显示12 km的报告Warsaw Chopin Airport。 该报告是针对2022年1月26日 18:00, 当地时间进行的。

机场观察

风来自西 (270°)方向,速度为14 千吨。

可见度为10 公里 或者更多。

有碎云在900 ft的高度。 破损或更高的上限为900 ft。

温度为3 °C,阵风为-4 °C。 露点为3 °C,相对湿度为100%。 海平面上的气压为1019 压力 (QNH)。

白天

今天,太阳从07:25升起,在16:11降落。 这适用于Babice Airport,世界夏令时可能有所不同。 当地时间与世界标准时间之间的时差为+1 小时。 当前,没有夏令时有效。

公司介绍

在这个机场,你可以找到飞行学校。 这个机场上的公司有Aero Club of Warsaw, Runway Pilot School 和 Ventum Air Flight Academy。

体会

到Vliegles.nl去找飞行课程,跳伞和其他飞行体验。 浏览页面,了解Babice Airport附近所有可用的活动。 你也可以使用搜索功能来寻找你所在地附近的特定飞行课程、跳伞或其他飞行体验。

您是否要在网站上Babice Airport飞行的天气? 阅读更多   自由!